Time;durP1;ratioP1;P1;durP2;ratioP2;P2;SDS_P1;SDS_P2;PMS_P1;PMS_P2;Temp;Humidity;BMP_temperature;BMP_pressure;BME280_temperature;BME280_humidity;BME280_pressure;Samples;Min_cycle;Max_cycle;Signal;HPM_P1;HPM_P2
2023/10/30 00:02:09;;;;;;;8.52;1.92;;;;;;;10.22;100.00;99777.88;6334197;22;20078;-96
2023/10/30 00:05:34;;;;;;;;;;;;;;;;;;;;;
2023/10/30 00:12:04;;;;;;;11.45;2.85;;;;;;;10.25;100.00;99795.25;6303214;22;20015;-96
2023/10/30 00:15:02;;;;;;;9.55;1.90;;;;;;;10.23;100.00;99795.25;6275827;22;20007;-96
2023/10/30 00:17:58;;;;;;;;;;;;;;;;;;;;;
2023/10/30 00:21:06;;;;;;;10.60;2.17;;;;;;;10.23;100.00;99805.66;6300954;22;19994;-96
2023/10/30 00:26:57;;;;;;;5.60;1.80;;;;;;;10.20;100.00;99817.81;6266271;22;20027;-96
2023/10/30 00:29:41;;;;;;;8.88;1.90;;;;;;;10.21;100.00;99825.63;6281337;22;20016;-96
2023/10/30 00:32:30;;;;;;;9.88;2.25;;;;;;;10.23;100.00;99834.31;6252568;22;20015;-96
2023/10/30 00:35:08;;;;;;;9.00;1.90;;;;;;;10.21;100.00;99836.03;6249817;22;20003;-96
2023/10/30 00:37:37;;;;;;;8.57;1.70;;;;;;;10.21;100.00;99832.53;6252960;22;20018;-96
2023/10/30 00:40:03;;;;;;;9.13;2.60;;;;;;;10.20;100.00;99830.81;6250426;22;20008;-96
2023/10/30 00:46:19;;;;;;;10.77;1.88;;;;;;;10.19;100.00;99832.53;6298406;22;20014;-96
2023/10/30 00:49:41;;;;;;;6.88;2.00;;;;;;;10.21;100.00;99841.25;6239880;23;19996;-96
2023/10/30 00:52:17;;;;;;;10.18;2.00;;;;;;;10.18;100.00;99851.63;6214217;23;20008;-96
2023/10/30 00:55:17;;;;;;;8.52;2.15;;;;;;;10.18;100.00;99853.34;6184472;23;20013;-96
2023/10/30 00:58:06;;;;;;;10.00;2.03;;;;;;;10.16;100.00;99855.94;6240909;23;19993;-96
2023/10/30 01:00:54;;;;;;;;;;;;;;;;;;;;;
2023/10/30 01:04:01;;;;;;;8.63;2.60;;;;;;;10.18;100.00;99872.47;6237285;23;20012;-96
2023/10/30 01:10:19;;;;;;;8.88;2.00;;;;;;;10.18;100.00;99877.66;6198159;23;20005;-96
2023/10/30 01:13:32;;;;;;;8.80;2.03;;;;;;;10.19;100.00;99879.38;6214406;23;20005;-97
2023/10/30 01:16:05;;;;;;;8.75;1.85;;;;;;;10.16;100.00;99887.16;6239712;23;20004;-96
2023/10/30 01:18:46;;;;;;;5.88;1.55;;;;;;;10.17;100.00;99888.94;6214657;23;20007;-96
2023/10/30 01:21:23;;;;;;;7.70;2.03;;;;;;;10.20;100.00;99894.16;6213636;23;20008;-96
2023/10/30 01:24:32;;;;;;;5.55;2.00;;;;;;;10.19;100.00;99884.59;6211948;23;20004;-96
2023/10/30 01:27:38;;;;;;;7.18;2.08;;;;;;;10.22;100.00;99886.38;6225141;23;20004;-96
2023/10/30 01:33:49;;;;;;;7.47;1.80;;;;;;;10.32;100.00;99877.78;6208734;23;20016;-96
2023/10/30 01:36:40;;;;;;;8.23;1.67;;;;;;;10.33;100.00;99876.06;6162809;23;20011;-97
2023/10/30 01:39:16;;;;;;;5.65;1.60;;;;;;;10.31;100.00;99869.94;6183513;23;20001;-96
2023/10/30 01:42:03;;;;;;;6.45;1.67;;;;;;;10.33;100.00;99876.94;6183370;23;20017;-96
2023/10/30 01:45:02;;;;;;;9.00;2.15;;;;;;;10.31;100.00;99881.25;6153650;23;19993;-96
2023/10/30 01:48:07;;;;;;;9.77;1.80;;;;;;;10.33;100.00;99878.66;6182050;23;19993;-96
2023/10/30 01:53:56;;;;;;;8.65;1.80;;;;;;;10.35;100.00;99884.78;6192245;23;20003;-96
2023/10/30 01:59:55;;;;;;;6.68;1.58;;;;;;;10.36;100.00;99887.41;6206170;23;20009;-96
2023/10/30 02:02:34;;;;;;;7.40;1.83;;;;;;;10.36;100.00;99891.75;6267083;23;20044;-96
2023/10/30 02:05:10;;;;;;;7.20;1.77;;;;;;;10.34;100.00;99898.66;6267643;23;20004;-97
2023/10/30 02:08:06;;;;;;;8.10;1.80;;;;;;;10.37;100.00;99899.56;6239132;23;20004;-97
2023/10/30 02:10:47;;;;;;;7.28;2.17;;;;;;;10.37;100.00;99893.47;6241483;23;20004;-96
2023/10/30 02:13:33;;;;;;;9.32;1.73;;;;;;;10.36;100.00;99897.81;6219285;23;20031;-96
2023/10/30 02:16:01;;;;;;;9.02;2.00;;;;;;;10.39;100.00;99894.38;6243010;23;20027;-96
2023/10/30 02:18:48;;;;;;;10.20;1.90;;;;;;;10.38;100.00;99893.47;6293232;22;20003;-96
2023/10/30 02:22:10;;;;;;;7.22;2.00;;;;;;;10.39;100.00;99896.97;6330229;22;20010;-96
2023/10/30 02:25:22;;;;;;;6.75;1.58;;;;;;;10.37;100.00;99893.47;6305895;22;20003;-96
2023/10/30 02:28:23;;;;;;;9.30;1.80;;;;;;;10.34;100.00;99894.34;6243001;23;20024;-96
2023/10/30 02:31:35;;;;;;;;;;;;;;;;;;;;;
2023/10/30 02:34:04;;;;;;;7.68;1.58;;;;;;;10.36;100.00;99890.00;6238635;23;20008;-96
2023/10/30 02:37:02;;;;;;;8.50;1.95;;;;;;;10.33;100.00;99889.94;6240969;23;20004;-96
2023/10/30 02:40:00;;;;;;;7.47;1.85;;;;;;;10.34;100.00;99880.41;6243043;23;20083;-96
2023/10/30 02:42:49;;;;;;;6.45;1.50;;;;;;;10.35;100.00;99879.56;6240913;23;20012;-96
2023/10/30 02:45:50;;;;;;;;;;;;;;;;;;;;;
2023/10/30 02:48:41;;;;;;;8.63;1.70;;;;;;;10.33;100.00;99878.66;6266853;23;20015;-96
2023/10/30 02:51:53;;;;;;;10.23;1.92;;;;;;;10.31;100.00;99878.66;6278096;22;19991;-96
2023/10/30 02:58:01;;;;;;;7.45;1.63;;;;;;;10.28;100.00;99876.00;6248060;22;20007;-96
2023/10/30 03:01:02;;;;;;;8.18;2.05;;;;;;;10.30;100.00;99883.81;6290991;22;19999;-96
2023/10/30 03:04:12;;;;;;;10.10;2.05;;;;;;;10.32;100.00;99874.31;6307834;22;20005;-96
2023/10/30 03:07:05;;;;;;;7.63;2.40;;;;;;;10.34;100.00;99875.22;6308124;22;20010;-96
2023/10/30 03:09:54;;;;;;;7.65;1.30;;;;;;;10.34;100.00;99872.59;6307104;22;20006;-96
2023/10/30 03:15:45;;;;;;;6.10;1.80;;;;;;;10.34;100.00;99881.31;6211580;23;19993;-96
2023/10/30 03:18:35;;;;;;;8.98;1.65;;;;;;;10.35;100.00;99895.19;6272910;22;19994;-96
2023/10/30 03:21:06;;;;;;;7.18;1.65;;;;;;;10.32;100.00;99885.59;6292795;22;19999;-96
2023/10/30 03:35:02;;;;;;;9.25;2.15;;;;;;;10.32;100.00;99896.00;6218981;23;20091;-96
2023/10/30 03:37:35;;;;;;;8.18;1.92;;;;;;;10.32;100.00;99900.34;6217551;23;20015;-96
2023/10/30 03:40:01;;;;;;;6.88;1.90;;;;;;;10.32;100.00;99895.13;6216348;23;20012;-96
2023/10/30 03:42:42;;;;;;;6.65;1.75;;;;;;;10.32;100.00;99898.59;6192408;23;20060;-96
2023/10/30 03:45:28;;;;;;;8.43;1.90;;;;;;;10.29;100.00;99892.50;6192081;23;20079;-95
2023/10/30 03:48:13;;;;;;;7.65;1.85;;;;;;;10.26;100.00;99889.00;6191114;23;20024;-96
2023/10/30 03:51:05;;;;;;;10.68;1.90;;;;;;;10.23;100.00;99888.13;6216937;23;20035;-96
2023/10/30 03:54:00;;;;;;;8.38;2.00;;;;;;;10.20;100.00;99890.69;6218602;23;20027;-96
2023/10/30 03:56:48;;;;;;;8.23;2.10;;;;;;;10.16;100.00;99889.78;6216310;23;20004;-96
2023/10/30 04:00:01;;;;;;;8.93;1.88;;;;;;;10.16;100.00;99897.59;6241495;23;19988;-96
2023/10/30 04:03:09;;;;;;;8.95;2.00;;;;;;;10.15;100.00;99901.03;6241914;23;19991;-96
2023/10/30 04:06:10;;;;;;;7.63;1.80;;;;;;;10.11;100.00;99899.28;6192463;23;20006;-96
2023/10/30 04:08:45;;;;;;;8.73;2.05;;;;;;;10.08;100.00;99887.09;6241319;23;20013;-96
2023/10/30 04:14:30;;;;;;;7.28;1.65;;;;;;;10.12;100.00;99892.34;6240855;23;19993;-96
2023/10/30 04:17:36;;;;;;;8.57;2.03;;;;;;;10.11;100.00;99896.69;6191017;23;19988;-96
2023/10/30 04:20:20;;;;;;;6.40;1.88;;;;;;;10.11;100.00;99894.09;6215510;23;20024;-96
2023/10/30 04:23:01;;;;;;;10.05;1.95;;;;;;;10.10;100.00;99889.72;6237976;23;20021;-96
2023/10/30 04:25:55;;;;;;;9.48;1.60;;;;;;;10.09;100.00;99887.97;6211575;23;20032;-96
2023/10/30 04:32:37;;;;;;;7.68;1.95;;;;;;;10.12;100.00;99902.75;6210621;23;20021;-96
2023/10/30 04:35:18;;;;;;;8.30;2.05;;;;;;;10.10;100.00;99892.31;6205268;23;20052;-96
2023/10/30 04:37:51;;;;;;;8.20;1.85;;;;;;;10.10;100.00;99905.34;6200063;23;20017;-96
2023/10/30 04:40:54;;;;;;;7.57;1.83;;;;;;;10.09;100.00;99904.47;6210409;23;19993;-96
2023/10/30 04:44:03;;;;;;;;;;;;;;;;;;;;;
2023/10/30 04:47:02;;;;;;;10.07;2.28;;;;;;;10.04;100.00;99911.34;6209711;23;19981;-96
2023/10/30 04:53:12;;;;;;;;;;;;;;;;;;;;;
2023/10/30 04:56:04;;;;;;;;;;;;;;;;;;;;;
2023/10/30 04:58:56;;;;;;;7.22;1.77;;;;;;;10.02;100.00;99897.47;6209760;23;20000;-96
2023/10/30 05:01:56;;;;;;;8.30;1.50;;;;;;;10.00;100.00;99888.75;6204273;23;20039;-96
2023/10/30 05:04:46;;;;;;;;;;;;;;;;;;;;;
2023/10/30 05:07:57;;;;;;;5.50;1.52;;;;;;;9.98;100.00;99893.06;6191375;23;20016;-96
2023/10/30 05:10:43;;;;;;;9.93;1.85;;;;;;;9.96;100.00;99896.50;6210020;23;20061;-96
2023/10/30 05:14:01;;;;;;;6.97;1.50;;;;;;;9.95;100.00;99889.56;6208322;23;20073;-97
2023/10/30 05:16:55;;;;;;;6.78;1.58;;;;;;;9.89;100.00;99888.66;6208696;23;19996;-97
2023/10/30 05:20:03;;;;;;;8.82;1.90;;;;;;;9.87;100.00;99903.34;6203772;23;20009;-96
2023/10/30 05:22:53;;;;;;;;;;;;;;;;;;;;;
2023/10/30 05:25:40;;;;;;;8.93;1.88;;;;;;;9.84;100.00;99902.47;6208427;23;20001;-96
2023/10/30 05:28:43;;;;;;;;;;;;;;;;;;;;;
2023/10/30 05:31:37;;;;;;;7.72;1.92;;;;;;;9.78;100.00;99895.47;6203130;23;19985;-96
2023/10/30 05:34:58;;;;;;;7.88;1.80;;;;;;;9.79;100.00;99884.22;6210229;23;20064;-96
2023/10/30 05:38:22;;;;;;;;;;;;;;;;;;;;;
2023/10/30 05:41:08;;;;;;;6.60;1.75;;;;;;;9.70;100.00;99878.88;6207478;23;19993;-96
2023/10/30 05:43:53;;;;;;;8.77;1.60;;;;;;;9.67;100.00;99876.25;6210802;23;20009;-96
2023/10/30 05:46:35;;;;;;;7.07;1.60;;;;;;;9.66;100.00;99887.50;6184715;23;20043;-96
2023/10/30 05:49:33;;;;;;;7.22;1.60;;;;;;;9.66;100.00;99882.28;6209793;23;20028;-96
2023/10/30 05:55:53;;;;;;;;;;;;;;;;;;;;;
2023/10/30 05:58:49;;;;;;;6.63;1.92;;;;;;;9.61;100.00;99881.38;6181400;23;20005;-96
2023/10/30 06:01:58;;;;;;;6.35;1.70;;;;;;;9.63;100.00;99877.06;6179641;23;20012;-96
2023/10/30 06:04:56;;;;;;;7.72;1.67;;;;;;;9.61;100.00;99874.44;6089241;23;20017;-96
2023/10/30 06:12:47;;;;;;;8.30;2.30;;;;;;;9.53;100.00;99873.47;6289080;22;20007;-96
2023/10/30 06:15:24;;;;;;;9.98;2.03;;;;;;;9.52;100.00;99875.22;6273820;22;20015;-96
2023/10/30 06:17:56;;;;;;;10.77;1.75;;;;;;;9.53;100.00;99876.97;6299315;22;20004;-96
2023/10/30 06:20:44;;;;;;;8.65;2.53;;;;;;;9.51;100.00;99876.06;6272060;22;20034;-96
2023/10/30 06:23:44;;;;;;;8.55;1.92;;;;;;;9.53;100.00;99892.56;6272128;22;20015;-96
2023/10/30 06:26:32;;;;;;;5.30;1.58;;;;;;;9.51;100.00;99893.41;6272578;22;20008;-96
2023/10/30 06:29:32;;;;;;;9.95;1.98;;;;;;;9.53;100.00;99902.97;6275353;22;20025;-96
2023/10/30 06:32:17;;;;;;;8.63;2.10;;;;;;;9.52;100.00;99901.22;6275870;22;20016;-96
2023/10/30 06:35:08;;;;;;;7.47;1.92;;;;;;;9.51;100.00;99912.47;6275100;22;20007;-96
2023/10/30 06:38:03;;;;;;;9.40;1.92;;;;;;;9.53;100.00;99921.16;6275517;22;20012;-96
2023/10/30 06:41:33;;;;;;;6.85;1.70;;;;;;;9.50;100.00;99915.03;6302556;22;19992;-96
2023/10/30 06:44:00;;;;;;;9.27;1.83;;;;;;;9.47;100.00;99926.31;6276040;22;20003;-98
2023/10/30 06:47:02;;;;;;;5.40;1.58;;;;;;;9.49;100.00;99929.78;6277813;22;20012;-96
2023/10/30 06:49:57;;;;;;;9.30;2.58;;;;;;;9.49;100.00;99931.53;6276188;22;20011;-96
2023/10/30 06:56:28;;;;;;;7.57;1.80;;;;;;;9.48;100.00;99929.75;6275143;22;20000;-96
2023/10/30 06:59:52;;;;;;;;;;;;;;;;;;;;;
2023/10/30 07:06:11;;;;;;;8.68;1.85;;;;;;;9.53;100.00;99935.88;6256112;22;20042;-96
2023/10/30 07:18:07;;;;;;;9.25;2.00;;;;;;;9.60;100.00;99937.72;6295560;22;20116;-95
2023/10/30 07:20:38;;;;;;;8.18;2.00;;;;;;;9.61;100.00;99931.66;6288230;22;20012;-96
2023/10/30 07:29:42;;;;;;;7.10;1.73;;;;;;;9.64;100.00;99946.44;6327933;22;20007;-96
2023/10/30 07:32:53;;;;;;;;;;;;;;;;;;;;;
2023/10/30 07:36:01;;;;;;;6.93;1.88;;;;;;;9.65;100.00;99967.25;6333302;22;20018;-96
2023/10/30 07:38:52;;;;;;;7.70;2.45;;;;;;;9.64;100.00;99957.69;6305601;22;20011;-96
2023/10/30 07:45:05;;;;;;;9.02;2.00;;;;;;;9.72;100.00;99968.22;6179773;23;20037;-96
2023/10/30 07:47:49;;;;;;;6.88;2.10;;;;;;;9.77;100.00;99969.16;6154905;23;20054;-97
2023/10/30 07:53:02;;;;;;;9.70;2.08;;;;;;;9.83;100.00;99968.34;6303357;22;20023;-96
2023/10/30 07:55:48;;;;;;;12.70;2.10;;;;;;;9.85;100.00;99967.53;6306013;22;19999;-96
2023/10/30 07:58:33;;;;;;;6.68;2.13;;;;;;;9.89;100.00;99958.91;6304591;22;20026;-96
2023/10/30 08:01:01;;;;;;;8.77;2.55;;;;;;;9.95;100.00;99967.63;6301624;22;20037;-96
2023/10/30 08:03:55;;;;;;;8.77;2.03;;;;;;;9.97;100.00;99971.13;6304166;22;20054;-96
2023/10/30 08:13:02;;;;;;;11.48;2.28;;;;;;;10.07;100.00;99967.78;6330376;22;20023;-96
2023/10/30 08:15:57;;;;;;;9.68;3.08;;;;;;;10.10;100.00;99975.63;6269658;23;20003;-96
2023/10/30 08:24:35;;;;;;;10.60;2.40;;;;;;;10.30;100.00;99970.63;6300215;22;20050;-96
2023/10/30 08:27:47;;;;;;;8.43;2.10;;;;;;;10.38;100.00;99979.41;6261909;22;20142;-96
2023/10/30 08:30:38;;;;;;;9.18;2.03;;;;;;;10.45;100.00;99977.75;6299516;22;20043;-96
2023/10/30 08:33:49;;;;;;;12.68;2.75;;;;;;;10.50;100.00;99989.09;6275958;22;20024;-96
2023/10/30 08:36:44;;;;;;;10.48;2.10;;;;;;;10.55;100.00;99986.53;6213473;23;20008;-96
2023/10/30 08:39:28;;;;;;;7.13;2.03;;;;;;;10.61;100.00;99986.59;6237811;23;20020;-96
2023/10/30 08:42:23;;;;;;;8.48;1.85;;;;;;;10.66;100.00;99979.72;6265762;22;19995;-96
2023/10/30 08:45:03;;;;;;;7.93;2.03;;;;;;;10.73;100.00;99970.19;6246184;22;20014;-96
2023/10/30 08:47:40;;;;;;;8.45;2.10;;;;;;;10.78;100.00;99973.72;6273443;22;19987;-96
2023/10/30 08:50:19;;;;;;;10.02;1.73;;;;;;;10.83;100.00;99971.16;6273610;22;20003;-96
2023/10/30 08:53:18;;;;;;;8.63;2.25;;;;;;;10.91;100.00;99978.16;6272406;22;20019;-96
2023/10/30 08:58:46;;;;;;;;;;;;;;;;;;;;;
2023/10/30 09:01:45;;;;;;;9.18;2.30;;;;;;;11.07;100.00;99970.47;6299552;22;20004;-96
2023/10/30 09:04:24;;;;;;;8.45;1.88;;;;;;;11.11;100.00;99973.13;6225933;22;20024;-96
2023/10/30 09:06:58;;;;;;;7.80;1.70;;;;;;;11.15;100.00;99979.22;6271549;22;20014;-96
2023/10/30 09:09:40;;;;;;;7.00;1.83;;;;;;;11.21;100.00;99987.09;6265452;23;20024;-96
2023/10/30 09:12:20;;;;;;;9.43;1.80;;;;;;;11.24;100.00;99988.84;6265737;23;20012;-96
2023/10/30 09:15:03;;;;;;;8.90;1.83;;;;;;;11.27;100.00;99986.28;6261666;23;20045;-96
2023/10/30 09:17:33;;;;;;;10.50;2.00;;;;;;;11.32;100.00;99979.34;6267172;23;20074;-96
2023/10/30 09:20:03;;;;;;;6.97;1.52;;;;;;;11.37;100.00;99984.56;6263301;23;20036;-96
2023/10/30 09:23:18;;;;;;;9.30;2.25;;;;;;;11.42;100.00;99977.66;6264740;23;19984;-96
2023/10/30 09:26:03;;;;;;;8.90;1.80;;;;;;;11.46;100.00;99971.59;6230473;22;20012;-96
2023/10/30 09:31:38;;;;;;;13.35;2.08;;;;;;;11.54;100.00;99967.28;6228968;23;20013;-96
2023/10/30 09:34:03;;;;;;;6.38;1.58;;;;;;;11.57;100.00;99967.34;6233524;23;20008;-96
2023/10/30 09:37:01;;;;;;;6.00;1.65;;;;;;;11.61;100.00;99969.06;6202461;23;20148;-96
2023/10/30 09:39:51;;;;;;;5.65;1.58;;;;;;;11.64;100.00;99973.44;6231728;23;20009;-96
2023/10/30 09:45:41;;;;;;;6.10;1.70;;;;;;;11.68;100.00;99969.97;6255328;23;20031;-96
2023/10/30 09:48:24;;;;;;;6.28;1.63;;;;;;;11.70;100.00;99964.75;6122389;23;20062;-96
2023/10/30 09:51:27;;;;;;;8.90;1.83;;;;;;;11.74;100.00;99963.91;6114629;23;20025;-96
2023/10/30 09:54:04;;;;;;;5.80;1.60;;;;;;;11.75;100.00;99957.84;6096114;23;20082;-96
2023/10/30 09:56:38;;;;;;;8.27;1.88;;;;;;;11.77;100.00;99950.88;6174119;23;20043;-96
2023/10/30 09:59:16;;;;;;;5.57;1.90;;;;;;;11.80;100.00;99949.16;6237765;23;20025;-96
2023/10/30 10:01:55;;;;;;;8.20;1.77;;;;;;;11.82;100.00;99949.19;6212007;23;20013;-96
2023/10/30 10:04:45;;;;;;;8.35;1.95;;;;;;;11.84;100.00;99940.47;6202390;23;20055;-96
2023/10/30 10:07:18;;;;;;;9.60;1.60;;;;;;;11.87;100.00;99937.00;6205562;23;20017;-96
2023/10/30 10:10:03;;;;;;;7.07;1.50;;;;;;;11.93;100.00;99947.47;6209993;23;20008;-96
2023/10/30 10:13:02;;;;;;;8.85;1.80;;;;;;;11.94;100.00;99936.19;6207957;23;20005;-96
2023/10/30 10:16:00;;;;;;;9.57;1.77;;;;;;;12.00;100.00;99937.94;6209314;23;20478;-96
2023/10/30 10:18:55;;;;;;;;;;;;;;;;;;;;;
2023/10/30 10:21:49;;;;;;;6.68;1.55;;;;;;;12.07;100.00;99938.84;6235491;23;20019;-96
2023/10/30 10:24:45;;;;;;;4.38;1.45;;;;;;;12.11;100.00;99932.78;6207971;23;20011;-96
2023/10/30 10:27:38;;;;;;;7.57;1.80;;;;;;;12.12;100.00;99940.59;6209448;23;20001;-96
2023/10/30 10:30:17;;;;;;;;;;;;;;;;;;;;;
2023/10/30 10:33:02;;;;;;;9.57;1.77;;;;;;;12.18;100.00;99944.97;6234761;23;20008;-96
2023/10/30 10:35:53;;;;;;;7.05;1.73;;;;;;;12.22;100.00;99938.00;6209248;23;20005;-96
2023/10/30 10:38:40;;;;;;;6.97;1.73;;;;;;;12.27;100.00;99939.75;6234967;23;20005;-96
2023/10/30 10:41:39;;;;;;;7.50;1.60;;;;;;;12.29;100.00;99937.16;6254871;22;20011;-96
2023/10/30 10:44:35;;;;;;;4.68;1.60;;;;;;;12.32;100.00;99931.94;6203859;23;20036;-97
2023/10/30 10:47:03;;;;;;;7.63;1.90;;;;;;;12.33;100.00;99929.31;6229001;23;20042;-96
2023/10/30 10:49:37;;;;;;;5.32;1.77;;;;;;;12.35;100.00;99938.03;6225736;23;20050;-96
2023/10/30 10:52:13;;;;;;;6.40;1.52;;;;;;;12.38;100.00;99937.16;6231982;23;20027;-96
2023/10/30 10:55:05;;;;;;;7.05;1.70;;;;;;;12.42;100.00;99938.03;6232157;23;20008;-96
2023/10/30 10:58:16;;;;;;;;;;;;;;;;;;;;;
2023/10/30 11:01:02;;;;;;;7.60;1.67;;;;;;;12.45;100.00;99927.59;6233600;23;20001;-96
2023/10/30 11:04:01;;;;;;;5.55;1.38;;;;;;;12.50;100.00;99931.97;6209965;23;20005;-96
2023/10/30 11:18:35;;;;;;;4.35;1.95;;;;;;;12.60;100.00;99914.56;6272348;22;20023;-96
2023/10/30 11:21:25;;;;;;;5.35;1.60;;;;;;;12.59;100.00;99910.19;6293998;22;20039;-96
2023/10/30 11:24:22;;;;;;;5.28;1.40;;;;;;;12.62;100.00;99909.31;6299970;22;20003;-96
2023/10/30 11:47:00;;;;;;;4.13;1.35;;;;;;;12.74;100.00;99864.88;6233112;22;20078;-96
2023/10/30 11:49:43;;;;;;;7.03;1.40;;;;;;;12.75;100.00;99863.16;6256463;23;20016;-96
2023/10/30 11:52:13;;;;;;;5.00;2.45;;;;;;;12.75;100.00;99855.31;6258598;23;20000;-96
2023/10/30 11:54:48;;;;;;;5.00;1.10;;;;;;;12.72;100.00;99850.09;6249953;23;20008;-96
2023/10/30 11:57:45;;;;;;;6.32;1.42;;;;;;;12.73;100.00;99850.06;6265490;23;20015;-96
2023/10/30 12:00:21;;;;;;;4.18;1.15;;;;;;;12.74;100.00;99848.31;6238899;23;20004;-96
2023/10/30 12:05:46;;;;;;;;;;;;;;;;;;;;;
2023/10/30 12:10:50;;;;;;;5.45;1.52;;;;;;;12.73;100.00;99837.00;6338646;22;20023;-96
2023/10/30 12:13:16;;;;;;;5.28;1.00;;;;;;;12.73;100.00;99837.00;6279208;22;20035;-96
2023/10/30 12:15:56;;;;;;;6.85;1.60;;;;;;;12.74;100.00;99828.28;6253150;22;20008;-96
2023/10/30 12:18:45;;;;;;;4.10;1.08;;;;;;;12.76;100.00;99831.78;6272889;22;20051;-97
2023/10/30 12:21:15;;;;;;;5.00;1.27;;;;;;;12.73;100.00;99812.59;6259637;22;20020;-96
2023/10/30 12:24:03;;;;;;;4.07;1.00;;;;;;;12.72;100.00;99821.34;6253824;22;20015;-96
2023/10/30 12:27:09;;;;;;;4.18;1.10;;;;;;;12.73;100.00;99816.09;6290248;22;20022;-96
2023/10/30 12:30:27;;;;;;;3.88;1.15;;;;;;;12.76;100.00;99810.84;6282326;22;20029;-96
2023/10/30 12:33:13;;;;;;;;;;;;;;;;;;;;;
2023/10/30 12:35:42;;;;;;;6.03;1.60;;;;;;;12.77;100.00;99790.81;6285112;22;20042;-96
2023/10/30 12:38:26;;;;;;;4.07;1.20;;;;;;;12.77;100.00;99794.28;6278292;22;20790;-96
2023/10/30 12:40:56;;;;;;;4.10;1.48;;;;;;;12.77;100.00;99778.59;6277619;22;20460;-96
2023/10/30 12:43:22;;;;;;;5.05;1.60;;;;;;;12.79;100.00;99778.59;6283277;22;20008;-96
2023/10/30 12:45:50;;;;;;;4.97;1.30;;;;;;;12.78;100.00;99776.88;6281090;22;20106;-96
2023/10/30 12:51:06;;;;;;;4.68;1.50;;;;;;;12.74;100.00;99767.28;6259929;22;20264;-96
2023/10/30 12:53:40;;;;;;;4.40;1.35;;;;;;;12.73;100.00;99765.53;6264162;22;20008;-96
2023/10/30 12:56:06;;;;;;;8.63;2.97;;;;;;;12.72;100.00;99761.22;6265064;22;20007;-95
2023/10/30 13:01:09;;;;;;;6.63;2.20;;;;;;;12.63;100.00;99746.41;6231313;22;20032;-95
2023/10/30 14:47:41;;;;;;;4.65;2.22;;;;;;;12.21;100.00;99623.75;6230223;22;20031;-96
2023/10/30 14:50:07;;;;;;;4.20;1.40;;;;;;;12.22;100.00;99617.63;6246055;23;20206;-96
2023/10/30 14:52:41;;;;;;;6.60;1.73;;;;;;;12.24;100.00;99623.75;6221200;23;20445;-96
2023/10/30 14:55:17;;;;;;;4.03;1.58;;;;;;;12.23;100.00;99615.91;6256331;23;20441;-96
2023/10/30 14:57:48;;;;;;;4.68;1.65;;;;;;;12.22;100.00;99611.56;6257708;22;20031;-96
2023/10/30 15:00:20;;;;;;;5.72;1.55;;;;;;;12.20;100.00;99606.34;6259777;23;20012;-96
2023/10/30 15:03:26;;;;;;;3.42;1.45;;;;;;;12.16;100.00;99615.03;6256641;23;20015;-96
2023/10/30 15:06:21;;;;;;;4.90;1.73;;;;;;;12.12;100.00;99603.75;6221186;22;20322;-96
2023/10/30 15:14:02;;;;;;;4.38;2.20;;;;;;;12.11;100.00;99588.94;6297932;22;20023;-96
2023/10/30 15:16:31;;;;;;;7.43;2.63;;;;;;;12.13;100.00;99581.13;6258834;22;20007;-96
2023/10/30 15:19:03;;;;;;;5.80;2.58;;;;;;;12.14;100.00;99575.03;6261529;22;20095;-96
2023/10/30 18:03:33;;;;;;;11.77;6.55;;;;;;;11.38;100.00;99485.56;6296479;22;20016;-96
2023/10/30 18:38:11;;;;;;;11.75;7.50;;;;;;;11.33;100.00;99456.91;6276258;22;20011;-97
2023/10/30 18:40:48;;;;;;;12.40;7.88;;;;;;;11.31;100.00;99451.69;6201649;22;20007;-96
2023/10/30 18:43:19;;;;;;;16.15;11.57;;;;;;;11.34;100.00;99457.75;6264481;22;20034;-96
2023/10/30 18:45:51;;;;;;;13.27;8.65;;;;;;;11.34;100.00;99455.16;6258911;22;20580;-96
2023/10/30 18:48:22;;;;;;;16.75;11.40;;;;;;;11.37;100.00;99447.31;6256969;22;20337;-96
2023/10/30 18:50:57;;;;;;;15.30;9.98;;;;;;;11.40;100.00;99450.81;6259650;22;19999;-96
2023/10/30 19:09:03;;;;;;;21.05;13.52;;;;;;;11.45;100.00;99446.44;6263528;22;20024;-96
2023/10/30 19:11:36;;;;;;;20.25;12.10;;;;;;;11.47;100.00;99444.69;6279517;22;20015;-96
2023/10/30 19:14:02;;;;;;;20.42;11.50;;;;;;;11.46;100.00;99439.50;6278289;22;20011;-96
2023/10/30 19:16:40;;;;;;;15.20;9.02;;;;;;;11.47;100.00;99439.47;6277220;22;20004;-96
2023/10/30 19:19:20;;;;;;;16.23;11.15;;;;;;;11.48;100.00;99429.91;6285804;22;20038;-96
2023/10/30 19:22:03;;;;;;;16.75;10.98;;;;;;;11.49;100.00;99431.66;6289804;22;20024;-97
2023/10/30 19:24:45;;;;;;;;;;;;;;;;;;;;;
2023/10/30 19:27:21;;;;;;;16.60;11.38;;;;;;;11.49;100.00;99423.81;6287189;22;20038;-96
2023/10/30 19:33:14;;;;;;;14.02;10.00;;;;;;;11.49;100.00;99416.84;6294970;22;20000;-96
2023/10/30 19:36:06;;;;;;;15.40;10.30;;;;;;;11.50;100.00;99415.13;6298617;22;20011;-96
2023/10/30 19:39:04;;;;;;;17.25;10.35;;;;;;;11.51;100.00;99416.84;6293523;22;20004;-96
2023/10/30 19:42:06;;;;;;;15.65;9.95;;;;;;;11.50;100.00;99415.13;6303907;22;20014;-96
2023/10/30 19:45:15;;;;;;;17.33;10.88;;;;;;;11.53;100.00;99425.56;6303562;22;19984;-96
2023/10/30 19:47:47;;;;;;;16.35;10.20;;;;;;;11.50;100.00;99409.91;6296386;22;20072;-96
2023/10/30 19:50:25;;;;;;;15.32;10.73;;;;;;;11.48;100.00;99412.53;6299991;22;20000;-96
2023/10/30 19:53:02;;;;;;;16.48;10.73;;;;;;;11.49;100.00;99405.56;6317386;22;20086;-96
2023/10/30 19:55:56;;;;;;;16.60;11.38;;;;;;;11.48;100.00;99409.94;6292793;22;20055;-96
2023/10/30 19:58:24;;;;;;;15.57;10.98;;;;;;;11.49;100.00;99421.22;6315603;22;20098;-96
2023/10/30 20:00:55;;;;;;;16.45;11.50;;;;;;;11.50;100.00;99415.13;6288032;22;19999;-96
2023/10/30 20:03:39;;;;;;;17.40;10.98;;;;;;;11.51;100.00;99418.59;6289678;22;20038;-96
2023/10/30 20:06:09;;;;;;;16.10;10.52;;;;;;;11.51;100.00;99421.22;6301753;22;20015;-96
2023/10/30 20:09:04;;;;;;;15.90;11.63;;;;;;;11.53;100.00;99415.13;6301734;22;19991;-96
2023/10/30 20:17:06;;;;;;;15.77;10.75;;;;;;;11.60;100.00;99415.94;6278413;22;20033;-96
2023/10/30 20:20:02;;;;;;;17.95;12.15;;;;;;;11.62;100.00;99412.47;6293439;22;20011;-96
2023/10/30 20:22:51;;;;;;;17.88;11.45;;;;;;;11.62;100.00;99411.63;6299412;22;19988;-96
2023/10/30 20:25:23;;;;;;;17.27;11.50;;;;;;;11.61;100.00;99409.88;6268205;22;20011;-96
2023/10/30 20:31:22;;;;;;;16.85;11.27;;;;;;;11.62;100.00;99393.34;6270568;22;20061;-96
2023/10/30 20:33:58;;;;;;;19.92;12.93;;;;;;;11.64;100.00;99388.97;6310219;22;20003;-96
2023/10/30 20:36:33;;;;;;;17.65;11.85;;;;;;;11.64;100.00;99397.69;6313159;22;20007;-96
2023/10/30 20:39:01;;;;;;;18.92;12.75;;;;;;;11.66;100.00;99400.28;6309389;22;19999;-96
2023/10/30 20:41:37;;;;;;;16.93;11.37;;;;;;;11.65;100.00;99396.78;6316281;22;20078;-96
2023/10/30 20:44:03;;;;;;;18.05;12.95;;;;;;;11.65;100.00;99390.72;6314783;22;20003;-96
2023/10/30 20:46:31;;;;;;;18.75;12.80;;;;;;;11.66;100.00;99395.94;6310828;22;20011;-96
2023/10/30 20:49:03;;;;;;;19.50;13.70;;;;;;;11.69;100.00;99388.94;6307344;22;20014;-96
2023/10/30 20:51:34;;;;;;;21.35;14.05;;;;;;;11.67;100.00;99383.75;6283182;22;20003;-96
2023/10/30 20:54:03;;;;;;;21.52;13.65;;;;;;;11.68;100.00;99385.50;6307492;22;20078;-96
2023/10/30 20:56:45;;;;;;;20.75;13.50;;;;;;;11.69;100.00;99378.50;6279529;22;20041;-96
2023/10/30 21:02:03;;;;;;;20.63;12.68;;;;;;;11.68;100.00;99368.97;6305783;22;20072;-96
2023/10/30 21:04:57;;;;;;;23.30;13.23;;;;;;;11.69;100.00;99370.69;6304567;22;20011;-96
2023/10/30 21:07:27;;;;;;;20.35;12.55;;;;;;;11.71;100.00;99366.34;6260085;22;20016;-96
2023/10/30 21:09:56;;;;;;;22.38;13.65;;;;;;;11.71;100.00;99361.97;6247595;22;20054;-96
2023/10/30 21:12:46;;;;;;;18.55;12.35;;;;;;;11.70;100.00;99370.69;6253301;22;20000;-96
2023/10/30 21:15:30;;;;;;;64.57;38.40;;;;;;;11.73;100.00;99361.97;6251425;22;20433;-96
2023/10/30 21:17:56;;;;;;;27.42;16.60;;;;;;;11.73;100.00;99367.19;6248546;22;20010;-96
2023/10/30 21:20:46;;;;;;;21.65;13.60;;;;;;;11.74;100.00;99361.09;6246633;22;20012;-96
2023/10/30 21:23:16;;;;;;;22.33;13.98;;;;;;;11.74;100.00;99363.72;6244977;22;20007;-96
2023/10/30 21:25:42;;;;;;;21.02;12.52;;;;;;;11.74;100.00;99359.34;6244239;22;20007;-96
2023/10/30 21:31:22;;;;;;;17.35;10.77;;;;;;;11.73;100.00;99347.22;6258568;22;20009;-96
2023/10/30 21:33:59;;;;;;;13.80;8.80;;;;;;;11.75;100.00;99347.19;6246167;22;20000;-96